Huvudsida
METAR-TAF:

METAR-TAF

Flygplatser :

Sharurah, Saudiarabien

latitud: 17-28N, longitud: 047-07E, höjd: 720 m

Aktuellt väderrapport

Denna rapport gjordes för 57 minuter sedan, klockan 06:00 UTC
Vind 10 kt från ost
Temperatur 21°C
Fuktighet 40%
Tryck 1019 hPa
Sikt: 9000 m
Få moln på en höjd av 4000 ft

METAR: OESH 220600Z 08010KT 9000 FEW040 21/07 Q1019 NOSIG

Tid: 09:57 (06:57 UTC)

Väderprognos

Denna rapport gjordes för 7 timmar och 57 minuter sedan, klockan 23:00 UTC
Prognos gäller från 22 kl. 00 UTC till 23 kl. 06 UTC
Vind 3 kt varierande vindriktning
Sikt: 8000 m
Blir
från 22 kl. 10 UTC till 22 kl. 12 UTC
Vind 6 kt från nordost

TAF: OESH 212300Z 2200/2306 VRB03KT 8000 NSC BECMG 2210/2212 04006KT

Aktuella väderrapporter och prognoser från 4000 flygplatser (METAR- och TAF-rapporter).

De tillgängliga stationerna syns som gula och röda prickar på kartan.

För musen över prickarna för att se namnen på stationerna.

Klicka sedan för att få väderrapporter och prognoser.

För att ändra kartan: Klicka på de gröna knapparna med ett svart kors på för att zooma in; den gröna knappen med ett streck på för att zooma ut; eller på de gröna pilarna för angränsande kartor.


METAR-TAF: